Segamat, Malaysia
Current Conditions -  °F | °C
As of 10:00 PM on Thursday 30 Oct 2014 (Local Time) from WMKM Reporting Station
Thunderstorm Thunderstorm  
Wind Chill: 81°   Ceiling: 26000
Heat Index: 87°   Visibility: 5mi
Dew Point: 77°   Wind: 3mph
Humidity: 89%   Direction: 60°ENE
Pressure: 29.85"   Gusts: NA
Location:  2.52°N, 102.81°E
Report Text: WMKM 301400Z 06003KT 8000 TS FEW017CB SCT027 BKN260 27/25 Q1011
Loading
Personal Weather Stations






























Interactive Weather Map
Tropical Storm Tracking
New forecast layout! Learn more

10-Day Weather Forecast

Advertisements
Track Severe Weather on mobile